Time;durP1;ratioP1;P1;durP2;ratioP2;P2;SDS_P1;SDS_P2;PMS_P1;PMS_P2;Temp;Humidity;BMP_temperature;BMP_pressure;BME280_temperature;BME280_humidity;BME280_pressure;Samples;Min_cycle;Max_cycle;Signal;HPM_P1;HPM_P2
2021/07/19 00:01:04;;;;;;;13.82;4.90;;;;;;;17.82;70.54;100496.03;5064235;28;20461;-75
2021/07/19 00:03:29;;;;;;;21.02;5.72;;;;;;;17.79;70.74;100492.66;5064458;28;20020;-75
2021/07/19 00:05:55;;;;;;;26.75;5.97;;;;;;;17.76;70.52;100492.78;5064360;28;20071;-75
2021/07/19 00:08:20;;;;;;;16.30;6.05;;;;;;;17.67;70.68;100488.72;5064455;28;20033;-74
2021/07/19 00:10:45;;;;;;;16.00;5.85;;;;;;;17.62;71.06;100491.50;5064356;28;20025;-75
2021/07/19 00:13:11;;;;;;;19.05;6.20;;;;;;;17.58;71.28;100496.03;5064458;28;20032;-76
2021/07/19 00:15:37;;;;;;;24.20;6.18;;;;;;;17.52;71.38;100491.00;5064249;28;20024;-75
2021/07/19 00:18:02;;;;;;;15.48;5.85;;;;;;;17.48;71.61;100489.38;5064222;28;20032;-75
2021/07/19 00:20:28;;;;;;;24.77;5.57;;;;;;;17.43;71.65;100489.56;5064152;28;20498;-74
2021/07/19 00:22:54;;;;;;;16.00;5.30;;;;;;;17.41;71.80;100496.63;5064177;28;20025;-76
2021/07/19 00:25:20;;;;;;;16.63;5.72;;;;;;;17.39;72.06;100485.34;5064139;28;20021;-76
2021/07/19 00:27:47;;;;;;;24.17;6.20;;;;;;;17.41;72.35;100496.63;5063955;28;20033;-76
2021/07/19 00:30:14;;;;;;;24.52;6.43;;;;;;;17.41;72.14;100498.41;5064145;28;20017;-76
2021/07/19 00:32:41;;;;;;;20.42;5.65;;;;;;;17.36;72.32;100489.84;5062389;28;20017;-76
2021/07/19 00:35:08;;;;;;;19.27;5.80;;;;;;;17.43;72.46;100497.44;5063723;28;20031;-75
2021/07/19 00:37:34;;;;;;;18.20;6.07;;;;;;;17.40;72.27;100486.19;5063911;28;20060;-76
2021/07/19 00:40:00;;;;;;;20.63;6.25;;;;;;;17.42;72.62;100500.09;5063686;28;20051;-75
2021/07/19 00:42:26;;;;;;;13.90;5.93;;;;;;;17.19;72.52;100478.16;5063644;28;20478;-77
2021/07/19 00:44:51;;;;;;;23.38;6.13;;;;;;;17.33;72.65;100499.50;5063599;28;20100;-76
2021/07/19 00:47:17;;;;;;;21.60;5.47;;;;;;;17.30;72.82;100507.50;5063565;28;20024;-76
2021/07/19 00:49:44;;;;;;;28.05;6.50;;;;;;;17.28;72.98;100508.47;5063811;28;20048;-76
2021/07/19 00:52:11;;;;;;;17.75;5.65;;;;;;;17.24;73.04;100507.72;5064117;28;20044;-76
2021/07/19 00:54:38;;;;;;;21.65;5.75;;;;;;;17.24;73.17;100509.50;5063260;28;20049;-74
2021/07/19 00:57:05;;;;;;;20.98;6.20;;;;;;;17.17;73.07;100508.84;5063300;28;20025;-76
2021/07/19 00:59:33;;;;;;;17.70;6.20;;;;;;;17.17;72.93;100508.84;5062335;28;20052;-78
2021/07/19 01:02:01;;;;;;;17.60;5.20;;;;;;;17.08;73.18;100510.88;5063241;28;20052;-77
2021/07/19 01:04:29;;;;;;;12.52;5.88;;;;;;;17.02;73.08;100503.19;5063446;28;20021;-77
2021/07/19 01:07:00;;;;;;;19.30;6.03;;;;;;;17.05;73.34;100516.19;5061943;28;20079;-76
2021/07/19 01:09:28;;;;;;;19.35;6.50;;;;;;;17.09;73.23;100519.59;5063627;28;20021;-76
2021/07/19 01:11:59;;;;;;;19.92;6.10;;;;;;;17.02;72.72;100505.81;5064334;28;20025;-75
2021/07/19 01:14:25;;;;;;;13.23;5.85;;;;;;;16.94;72.54;100513.06;5064899;28;20052;-76
2021/07/19 01:16:50;;;;;;;21.08;6.55;;;;;;;16.76;72.70;100509.31;5064315;28;20102;-76
2021/07/19 01:19:16;;;;;;;16.13;5.68;;;;;;;16.69;73.30;100519.97;5063208;28;20055;-76
2021/07/19 01:22:21;;;;;;;16.15;6.60;;;;;;;16.72;73.67;100514.63;5062888;28;20021;-75
2021/07/19 01:25:24;;;;;;;22.63;6.60;;;;;;;16.65;72.69;100523.59;5063221;28;20025;-76
2021/07/19 01:28:16;;;;;;;15.82;6.53;;;;;;;16.54;72.85;100523.09;5062076;28;20021;-76
2021/07/19 01:30:43;;;;;;;21.67;5.90;;;;;;;16.43;72.88;100515.56;5063144;28;20032;-75
2021/07/19 01:33:12;;;;;;;13.30;5.88;;;;;;;16.42;72.98;100522.56;5063332;28;20039;-75
2021/07/19 01:35:44;;;;;;;23.15;6.50;;;;;;;16.37;73.03;100531.47;5061885;28;20389;-76
2021/07/19 01:38:12;;;;;;;16.35;6.53;;;;;;;16.31;73.38;100515.03;5063253;28;20031;-75
2021/07/19 01:40:38;;;;;;;18.35;6.35;;;;;;;16.25;73.26;100519.59;5062883;28;20086;-74
2021/07/19 01:43:06;;;;;;;15.85;5.43;;;;;;;16.23;73.54;100522.25;5061707;28;20029;-76
2021/07/19 01:45:32;;;;;;;14.63;5.90;;;;;;;16.23;73.56;100527.50;5063272;28;20035;-77
2021/07/19 01:47:59;;;;;;;13.90;4.28;;;;;;;16.24;73.75;100524.00;5063298;28;20108;-76
2021/07/19 01:50:25;;;;;;;11.70;4.57;;;;;;;16.19;73.85;100518.91;5063170;28;20420;-76
2021/07/19 01:52:50;;;;;;;17.17;5.22;;;;;;;16.17;73.64;100522.44;5062946;28;20017;-77
2021/07/19 01:55:17;;;;;;;17.58;4.88;;;;;;;16.14;73.70;100520.78;5061792;28;20044;-78
2021/07/19 01:57:42;;;;;;;12.65;4.18;;;;;;;16.17;73.74;100522.44;5061938;28;20036;-77
2021/07/19 02:00:09;;;;;;;13.48;4.80;;;;;;;16.18;73.35;100525.03;5063002;28;20029;-77
2021/07/19 02:02:38;;;;;;;15.85;4.93;;;;;;;16.14;73.51;100522.53;5061691;28;20017;-77
2021/07/19 02:05:12;;;;;;;9.60;4.75;;;;;;;16.16;73.64;100533.84;5061697;28;20025;-78
2021/07/19 02:07:39;;;;;;;16.10;4.85;;;;;;;16.17;73.81;100532.94;5062794;28;20048;-77
2021/07/19 02:10:08;;;;;;;19.20;5.28;;;;;;;16.16;73.81;100534.72;5066703;28;20373;-77
2021/07/19 02:12:37;;;;;;;15.80;5.75;;;;;;;16.16;73.68;100534.72;5066802;28;20021;-77
2021/07/19 02:15:22;;;;;;;14.95;5.63;;;;;;;16.14;73.70;100539.13;5066819;28;20023;-78
2021/07/19 02:17:56;;;;;;;15.48;5.97;;;;;;;16.10;73.75;100546.22;5066759;28;20111;-77
2021/07/19 02:20:23;;;;;;;14.60;4.72;;;;;;;16.07;73.67;100543.69;5066594;28;20029;-78
2021/07/19 02:22:50;;;;;;;14.40;4.72;;;;;;;16.04;73.53;100558.66;5066814;28;20032;-77
2021/07/19 02:25:16;;;;;;;15.98;4.85;;;;;;;15.96;73.52;100553.56;5066704;28;20025;-78
2021/07/19 02:27:47;;;;;;;11.48;4.63;;;;;;;15.93;73.45;100546.66;5066602;28;20025;-77
2021/07/19 02:30:15;;;;;;;12.38;4.55;;;;;;;15.90;73.47;100548.50;5066277;28;20021;-77
2021/07/19 02:32:44;;;;;;;13.10;4.40;;;;;;;15.84;73.29;100546.94;5064988;28;20029;-76
2021/07/19 02:35:11;;;;;;;13.25;5.35;;;;;;;15.81;73.27;100554.88;5064931;28;20024;-76
2021/07/19 02:37:42;;;;;;;12.77;4.60;;;;;;;15.83;73.23;100563.56;5066379;28;20067;-77
2021/07/19 02:40:10;;;;;;;11.25;4.22;;;;;;;15.83;72.87;100567.00;5066244;28;20013;-77
2021/07/19 02:42:39;;;;;;;10.68;4.13;;;;;;;15.79;72.93;100560.16;5066051;28;20057;-77
2021/07/19 02:45:10;;;;;;;10.13;4.32;;;;;;;15.80;72.69;100564.47;5066480;28;20031;-77
2021/07/19 02:47:37;;;;;;;12.40;4.60;;;;;;;15.77;72.59;100563.72;5066375;28;20052;-77
2021/07/19 02:50:04;;;;;;;13.32;4.57;;;;;;;15.68;72.68;100563.06;5065925;28;20029;-77
2021/07/19 02:52:30;;;;;;;13.38;4.38;;;;;;;15.65;72.68;100557.06;5065849;28;20084;-76
2021/07/19 02:54:55;;;;;;;9.55;3.47;;;;;;;15.59;72.62;100566.78;5065993;28;20079;-75
2021/07/19 02:57:20;;;;;;;10.23;3.83;;;;;;;15.60;72.50;100575.50;5066059;28;20036;-75
2021/07/19 02:59:46;;;;;;;7.78;4.25;;;;;;;15.58;72.57;100579.91;5065917;28;20081;-76
2021/07/19 03:02:13;;;;;;;9.07;3.22;;;;;;;15.55;72.43;100580.88;5065732;28;20393;-75
2021/07/19 03:04:41;;;;;;;9.90;4.38;;;;;;;15.57;72.07;100581.69;5065799;28;20499;-77
2021/07/19 03:07:07;;;;;;;6.00;2.67;;;;;;;15.53;72.26;100589.66;5064486;28;20027;-76
2021/07/19 03:09:39;;;;;;;8.45;3.90;;;;;;;15.55;72.00;100591.34;5065809;28;20021;-76
2021/07/19 03:12:06;;;;;;;11.80;3.70;;;;;;;15.50;71.72;100587.97;5065606;28;20120;-77
2021/07/19 03:14:34;;;;;;;6.10;2.60;;;;;;;15.54;71.66;100599.22;5064274;28;20044;-76
2021/07/19 03:17:01;;;;;;;8.23;3.40;;;;;;;15.53;71.33;100593.13;5065760;28;20031;-77
2021/07/19 03:19:28;;;;;;;8.30;3.35;;;;;;;15.59;71.33;100600.81;5064444;28;20091;-77
2021/07/19 03:21:56;;;;;;;7.05;3.10;;;;;;;15.91;71.41;100613.09;5065513;28;20032;-78
2021/07/19 03:24:24;;;;;;;4.35;2.88;;;;;;;16.26;71.04;100616.50;5065501;28;20029;-78
2021/07/19 03:26:50;;;;;;;6.47;2.80;;;;;;;16.61;70.62;100618.97;5065483;28;20025;-77
2021/07/19 03:29:16;;;;;;;8.82;2.65;;;;;;;16.88;69.50;100621.66;5065452;28;20268;-77
2021/07/19 03:31:43;;;;;;;6.30;2.85;;;;;;;17.21;69.30;100625.88;5065207;28;20509;-77
2021/07/19 03:34:13;;;;;;;8.27;2.92;;;;;;;17.67;68.05;100623.47;5065294;28;20032;-77
2021/07/19 03:36:39;;;;;;;5.50;2.75;;;;;;;18.04;66.59;100623.06;5065324;28;20016;-77
2021/07/19 03:39:07;;;;;;;6.60;3.10;;;;;;;18.29;66.01;100625.66;5065520;28;20021;-78
2021/07/19 03:41:33;;;;;;;5.60;2.72;;;;;;;18.71;64.72;100631.13;5064960;28;20201;-78
2021/07/19 03:44:01;;;;;;;6.80;2.95;;;;;;;18.91;63.08;100632.13;5063944;28;20048;-75
2021/07/19 03:46:27;;;;;;;5.18;2.15;;;;;;;18.95;60.94;100631.94;5063617;28;20038;-77
2021/07/19 03:48:53;;;;;;;7.53;2.42;;;;;;;19.12;61.55;100640.09;5064966;28;20025;-77
2021/07/19 03:51:19;;;;;;;5.63;2.40;;;;;;;19.37;59.66;100633.81;5065060;28;20029;-78
2021/07/19 03:53:45;;;;;;;5.88;2.58;;;;;;;19.34;58.52;100636.56;5064858;28;20041;-78
2021/07/19 03:56:11;;;;;;;5.38;2.40;;;;;;;19.31;58.57;100633.13;5064892;28;20025;-78
2021/07/19 03:58:37;;;;;;;4.95;2.45;;;;;;;19.49;58.53;100637.72;5064936;28;20418;-78
2021/07/19 04:01:04;;;;;;;7.18;2.22;;;;;;;19.57;57.06;100631.19;5064258;28;20025;-78
2021/07/19 04:03:46;;;;;;;4.80;2.40;;;;;;;19.59;56.36;100635.50;5064815;28;20104;-77
2021/07/19 04:06:17;;;;;;;4.85;2.13;;;;;;;19.55;55.65;100629.56;5064786;28;20104;-78
2021/07/19 04:08:44;;;;;;;5.70;2.17;;;;;;;19.62;55.02;100636.25;5063357;28;20448;-78
2021/07/19 04:11:21;;;;;;;7.47;2.58;;;;;;;19.79;55.60;100642.56;5064157;28;20258;-75
2021/07/19 04:13:47;;;;;;;4.03;2.13;;;;;;;20.19;54.18;100640.81;5063353;28;20025;-77
2021/07/19 04:16:14;;;;;;;6.07;2.40;;;;;;;20.42;53.61;100643.34;5064330;28;20032;-77
2021/07/19 04:18:40;;;;;;;4.63;2.03;;;;;;;20.62;52.92;100652.97;5064593;28;20115;-76
2021/07/19 04:21:06;;;;;;;5.60;1.60;;;;;;;20.79;52.74;100654.81;5065977;28;20281;-76
2021/07/19 04:23:32;;;;;;;5.32;2.00;;;;;;;20.99;52.28;100641.63;5084498;28;20025;-77
2021/07/19 04:25:58;;;;;;;4.68;1.83;;;;;;;21.27;51.77;100656.09;5084242;28;20055;-77
2021/07/19 04:28:24;;;;;;;3.83;1.98;;;;;;;21.47;51.13;100663.00;5084190;28;20020;-77
2021/07/19 04:30:51;;;;;;;5.05;2.22;;;;;;;21.47;50.32;100660.34;5083808;28;20024;-76
2021/07/19 04:33:18;;;;;;;3.08;1.60;;;;;;;21.62;49.80;100666.66;5084068;28;20555;-76
2021/07/19 04:35:46;;;;;;;2.78;1.40;;;;;;;21.89;48.83;100663.56;5084068;28;20088;-76
2021/07/19 04:38:16;;;;;;;2.53;1.75;;;;;;;21.92;47.41;100662.53;5084142;28;20050;-75
2021/07/19 04:40:45;;;;;;;3.83;2.30;;;;;;;22.05;48.44;100665.38;5082572;28;20318;-76
2021/07/19 04:43:11;;;;;;;2.83;1.90;;;;;;;22.19;46.81;100662.00;5084002;28;20035;-76
2021/07/19 04:45:37;;;;;;;3.58;1.75;;;;;;;22.21;46.20;100672.50;5083991;28;20103;-76
2021/07/19 04:48:02;;;;;;;2.85;1.33;;;;;;;22.18;46.12;100670.88;5084024;28;20028;-76
2021/07/19 04:50:28;;;;;;;2.97;1.60;;;;;;;22.14;46.32;100672.00;5082853;28;20478;-78
2021/07/19 04:52:53;;;;;;;3.03;1.50;;;;;;;22.41;46.20;100668.78;5084156;28;20020;-76
2021/07/19 04:55:21;;;;;;;5.50;1.55;;;;;;;22.88;44.95;100653.88;5083893;28;20085;-77
2021/07/19 04:57:50;;;;;;;4.63;1.80;;;;;;;22.98;43.52;100670.09;5083810;28;20079;-76
2021/07/19 05:00:16;;;;;;;1.92;1.27;;;;;;;22.85;42.05;100675.22;5083663;28;20050;-77
2021/07/19 05:02:44;;;;;;;3.63;1.30;;;;;;;22.56;42.18;100680.31;5083683;28;20032;-77
2021/07/19 05:05:17;;;;;;;4.10;1.50;;;;;;;22.37;42.68;100680.47;5082258;28;20108;-77
2021/07/19 05:07:44;;;;;;;3.00;1.27;;;;;;;22.23;42.31;100683.84;5083762;28;20020;-76
2021/07/19 05:10:14;;;;;;;2.25;1.40;;;;;;;21.98;42.93;100683.34;5083825;28;20104;-78
2021/07/19 05:12:43;;;;;;;3.25;1.10;;;;;;;21.73;42.34;100700.44;5085025;28;20027;-75
2021/07/19 05:15:13;;;;;;;2.72;1.30;;;;;;;21.57;42.77;100694.22;5085003;28;20025;-75
2021/07/19 05:17:42;;;;;;;2.65;1.45;;;;;;;21.65;42.63;100694.69;5083996;28;20031;-76
2021/07/19 05:20:13;;;;;;;1.73;1.10;;;;;;;21.69;42.34;100701.56;5083577;28;20032;-75
2021/07/19 05:22:44;;;;;;;1.98;1.00;;;;;;;21.70;41.69;100705.91;5083267;28;20024;-77
2021/07/19 05:25:10;;;;;;;4.00;1.25;;;;;;;21.60;41.74;100702.84;5083703;28;20100;-76
2021/07/19 05:27:37;;;;;;;3.13;1.30;;;;;;;21.64;41.37;100703.56;5083393;28;20282;-77
2021/07/19 05:30:02;;;;;;;1.60;0.95;;;;;;;21.71;41.11;100693.53;5083501;28;20025;-75
2021/07/19 05:32:28;;;;;;;2.72;0.93;;;;;;;21.90;39.67;100714.63;5083290;28;20522;-76
2021/07/19 05:34:53;;;;;;;1.88;1.08;;;;;;;21.76;39.80;100702.94;5083336;28;20480;-77
2021/07/19 05:37:20;;;;;;;1.55;0.80;;;;;;;21.75;39.80;100711.81;5083503;28;20028;-76
2021/07/19 05:39:48;;;;;;;2.85;0.98;;;;;;;21.77;39.86;100702.03;5083448;28;20032;-76
2021/07/19 05:42:14;;;;;;;2.00;0.90;;;;;;;21.95;39.13;100702.00;5081865;28;20041;-77
2021/07/19 05:44:39;;;;;;;1.58;0.75;;;;;;;22.03;38.91;100702.47;5086570;28;20104;-77
2021/07/19 05:47:05;;;;;;;1.55;0.90;;;;;;;22.31;39.19;100717.81;5087589;28;20216;-76
2021/07/19 05:49:30;;;;;;;1.27;0.80;;;;;;;22.65;38.05;100722.16;5087550;28;20020;-76
2021/07/19 05:51:55;;;;;;;2.25;0.70;;;;;;;22.72;37.68;100717.41;5087283;28;20020;-76
2021/07/19 05:54:21;;;;;;;3.25;0.98;;;;;;;22.83;37.50;100723.91;5086750;28;20061;-76
2021/07/19 05:56:46;;;;;;;1.20;0.70;;;;;;;23.02;37.45;100719.28;5087161;28;20043;-75
2021/07/19 05:59:11;;;;;;;0.85;0.60;;;;;;;22.99;36.71;100711.50;5087266;28;20036;-75
2021/07/19 06:01:37;;;;;;;1.38;0.82;;;;;;;23.06;36.09;100721.75;5086935;28;20020;-74
2021/07/19 06:04:02;;;;;;;1.20;0.65;;;;;;;23.17;36.53;100727.28;5087075;28;20330;-75
2021/07/19 06:06:28;;;;;;;1.42;0.80;;;;;;;23.19;35.55;100721.91;5086858;28;20262;-75
2021/07/19 06:08:53;;;;;;;1.63;0.73;;;;;;;23.07;36.27;100724.31;5086965;28;20092;-75
2021/07/19 06:11:19;;;;;;;1.10;0.80;;;;;;;23.25;36.01;100721.56;5086816;28;20016;-75
2021/07/19 06:13:44;;;;;;;2.20;0.90;;;;;;;23.21;35.83;100726.16;5087012;28;20028;-76
2021/07/19 06:16:10;;;;;;;2.22;0.90;;;;;;;23.17;35.96;100737.03;5086980;28;20104;-76
2021/07/19 06:18:35;;;;;;;1.63;0.77;;;;;;;23.30;35.89;100730.09;5086652;28;20025;-76
2021/07/19 06:21:01;;;;;;;5.57;0.75;;;;;;;23.31;35.51;100734.44;5086555;28;20040;-76
2021/07/19 06:23:26;;;;;;;2.50;0.70;;;;;;;23.02;35.78;100731.66;5085669;28;20032;-77
2021/07/19 06:25:51;;;;;;;1.05;0.60;;;;;;;22.87;36.12;100730.72;5085270;28;20115;-76
2021/07/19 06:28:17;;;;;;;1.77;0.80;;;;;;;22.88;35.65;100750.94;5086503;28;20020;-75
2021/07/19 06:30:42;;;;;;;0.80;0.50;;;;;;;22.83;36.18;100735.31;5086388;28;20032;-77
2021/07/19 06:33:08;;;;;;;1.20;0.60;;;;;;;23.00;36.30;100730.91;5086406;28;20029;-76
2021/07/19 06:35:34;;;;;;;1.38;0.73;;;;;;;23.16;35.58;100725.59;5086653;28;20025;-77
2021/07/19 06:38:00;;;;;;;0.90;0.63;;;;;;;23.24;34.69;100739.22;5085331;28;20044;-77
2021/07/19 06:40:25;;;;;;;1.42;0.68;;;;;;;23.25;34.72;100730.38;5086231;28;20032;-76
2021/07/19 06:42:50;;;;;;;4.53;0.90;;;;;;;23.28;34.90;100739.94;5086478;28;20079;-76
2021/07/19 06:45:16;;;;;;;1.05;0.60;;;;;;;23.34;34.45;100738.75;5086499;28;20022;-76
2021/07/19 06:47:42;;;;;;;1.00;0.70;;;;;;;23.31;34.24;100728.31;5086383;28;20138;-77
2021/07/19 06:50:10;;;;;;;1.00;0.60;;;;;;;23.43;34.52;100738.22;5086535;28;20059;-76
2021/07/19 06:52:37;;;;;;;1.15;0.65;;;;;;;23.71;34.57;100743.69;5084931;28;20082;-76
2021/07/19 06:55:04;;;;;;;1.52;0.60;;;;;;;23.98;33.81;100749.16;5085436;28;20551;-75
2021/07/19 06:57:29;;;;;;;0.60;0.45;;;;;;;24.18;32.36;100755.09;5086396;28;20028;-73
2021/07/19 06:59:55;;;;;;;0.73;0.50;;;;;;;24.13;31.84;100758.00;5086123;28;20032;-73
2021/07/19 07:02:20;;;;;;;0.65;0.52;;;;;;;23.85;32.09;100751.69;5085784;28;20025;-76
2021/07/19 07:04:46;;;;;;;0.40;0.38;;;;;;;23.70;32.35;100753.47;5085691;28;20029;-77
2021/07/19 07:07:11;;;;;;;0.82;0.40;;;;;;;23.66;31.79;100753.75;5086064;28;20085;-75
2021/07/19 07:09:37;;;;;;;1.05;0.52;;;;;;;23.52;31.74;100763.34;5085806;28;20209;-69
2021/07/19 07:12:03;;;;;;;1.02;0.50;;;;;;;23.46;31.35;100756.59;5085677;28;20048;-73
2021/07/19 07:14:31;;;;;;;0.85;0.60;;;;;;;23.37;31.81;100755.28;5086147;28;20024;-79
2021/07/19 07:16:57;;;;;;;1.10;0.52;;;;;;;23.47;31.27;100760.09;5084545;28;20059;-80
2021/07/19 07:19:23;;;;;;;1.23;0.47;;;;;;;23.54;32.12;100760.59;5085128;28;20027;-80
2021/07/19 07:21:48;;;;;;;0.70;0.40;;;;;;;23.73;31.79;100761.25;5085761;28;20025;-80
2021/07/19 07:24:14;;;;;;;1.27;0.60;;;;;;;23.69;31.57;100753.56;5085815;28;20035;-79
2021/07/19 07:26:39;;;;;;;0.32;0.32;;;;;;;23.49;31.46;100758.22;5085460;28;20029;-79
2021/07/19 07:29:05;;;;;;;0.98;0.43;;;;;;;23.41;31.75;100756.00;5085609;28;20020;-78
2021/07/19 07:31:30;;;;;;;1.13;0.70;;;;;;;23.43;31.79;100763.88;5085424;28;20023;-78
2021/07/19 07:33:57;;;;;;;0.43;0.38;;;;;;;23.45;31.61;100752.22;5085257;28;20070;-78
2021/07/19 07:36:27;;;;;;;0.82;0.50;;;;;;;23.47;31.52;100755.66;5085315;28;20078;-78
2021/07/19 07:38:53;;;;;;;1.08;0.35;;;;;;;23.60;32.09;100754.94;5084157;28;20051;-80
2021/07/19 07:41:19;;;;;;;1.20;0.40;;;;;;;23.88;32.38;100758.63;5085117;28;20517;-79
2021/07/19 07:43:45;;;;;;;1.13;0.40;;;;;;;24.38;31.19;100758.31;5085299;28;20166;-80
2021/07/19 07:46:11;;;;;;;0.68;0.60;;;;;;;24.83;30.71;100754.69;5085324;28;20024;-79
2021/07/19 07:48:37;;;;;;;1.45;0.55;;;;;;;25.04;30.06;100762.28;5085343;28;20074;-78
2021/07/19 07:51:07;;;;;;;0.60;0.30;;;;;;;25.25;29.03;100758.25;5085406;28;20453;-77
2021/07/19 07:53:32;;;;;;;0.90;0.43;;;;;;;25.19;29.13;100761.28;5084621;28;20029;-78
2021/07/19 07:55:58;;;;;;;1.17;0.60;;;;;;;25.09;29.27;100755.72;5085065;28;20035;-78
2021/07/19 07:58:27;;;;;;;2.15;0.50;;;;;;;25.07;28.76;100754.09;5085195;28;20039;-77
2021/07/19 08:00:53;;;;;;;1.38;0.70;;;;;;;25.16;28.85;100756.16;5084525;28;20381;-77
2021/07/19 08:03:19;;;;;;;1.08;0.45;;;;;;;25.23;29.07;100752.16;5084792;28;20020;-71
2021/07/19 08:05:44;;;;;;;1.20;0.50;;;;;;;25.27;29.21;100752.81;5082324;28;20297;-70
2021/07/19 08:08:10;;;;;;;2.70;0.68;;;;;;;25.47;28.83;100748.84;5084660;28;20024;-73
2021/07/19 08:10:35;;;;;;;1.02;0.50;;;;;;;25.65;27.79;100761.03;5084671;28;20025;-73
2021/07/19 08:13:01;;;;;;;0.47;0.30;;;;;;;25.59;27.75;100744.50;5084384;28;20036;-68
2021/07/19 08:15:26;;;;;;;1.45;0.52;;;;;;;25.90;27.42;100746.06;5084479;28;20052;-68
2021/07/19 08:17:52;;;;;;;0.70;0.50;;;;;;;25.97;26.81;100748.22;5084338;28;20490;-68
2021/07/19 08:20:18;;;;;;;0.70;0.40;;;;;;;25.89;26.47;100745.25;5084359;28;20441;-68
2021/07/19 08:22:47;;;;;;;2.30;0.52;;;;;;;25.90;27.47;100748.72;5084000;28;20025;-68
2021/07/19 08:25:13;;;;;;;0.73;0.30;;;;;;;26.06;27.03;100754.72;5084030;28;20066;-74
2021/07/19 08:27:39;;;;;;;0.90;0.50;;;;;;;26.05;26.07;100752.16;5084215;28;20074;-68
2021/07/19 08:30:05;;;;;;;1.08;0.50;;;;;;;25.91;26.45;100751.28;5084013;28;20020;-67
2021/07/19 08:32:30;;;;;;;0.80;0.50;;;;;;;25.87;26.53;100763.09;5083809;28;20522;-68
2021/07/19 08:34:56;;;;;;;1.50;0.43;;;;;;;25.90;26.29;100764.69;5083797;28;20032;-67
2021/07/19 08:37:21;;;;;;;1.85;0.50;;;;;;;25.80;26.62;100759.16;5083983;28;20024;-68
2021/07/19 08:39:47;;;;;;;2.90;0.30;;;;;;;25.92;26.42;100758.31;5082421;28;20496;-75
2021/07/19 08:42:13;;;;;;;2.15;0.50;;;;;;;26.04;26.37;100759.28;5083864;28;20023;-72
2021/07/19 08:44:40;;;;;;;0.82;0.40;;;;;;;26.28;26.46;100752.38;5084129;28;20042;-76
2021/07/19 08:47:07;;;;;;;0.70;0.50;;;;;;;26.88;26.14;100763.28;5083919;28;20016;-74
2021/07/19 08:49:33;;;;;;;0.90;0.50;;;;;;;27.11;25.28;100766.09;5083525;28;20029;-66
2021/07/19 08:51:59;;;;;;;1.38;0.50;;;;;;;26.97;25.70;100769.72;5083738;28;20073;-65
2021/07/19 08:54:27;;;;;;;0.70;0.50;;;;;;;26.91;25.64;100771.03;5083282;28;20048;-68
2021/07/19 08:56:56;;;;;;;0.88;0.40;;;;;;;26.83;25.69;100778.72;5083619;28;20025;-69
2021/07/19 08:59:22;;;;;;;1.63;0.40;;;;;;;27.22;26.33;100768.00;5083286;28;20107;-68
2021/07/19 09:01:47;;;;;;;0.60;0.40;;;;;;;28.02;25.05;100770.94;5083279;28;20031;-66
2021/07/19 09:04:17;;;;;;;0.43;0.40;;;;;;;28.24;23.44;100763.09;5083844;28;20012;-73
2021/07/19 09:06:44;;;;;;;1.95;0.47;;;;;;;28.20;23.44;100760.66;5083332;28;20028;-63
2021/07/19 09:09:09;;;;;;;0.93;0.45;;;;;;;28.02;23.45;100770.09;5083685;28;20076;-69
2021/07/19 09:11:34;;;;;;;0.75;0.55;;;;;;;28.10;23.75;100765.00;5083516;28;20032;-67
2021/07/19 09:14:01;;;;;;;0.90;0.63;;;;;;;28.16;23.98;100766.38;5082258;28;20020;-67
2021/07/19 09:16:37;;;;;;;1.10;0.47;;;;;;;28.70;24.00;100766.63;5083640;28;20024;-70
2021/07/19 09:19:06;;;;;;;0.55;0.30;;;;;;;29.01;23.43;100755.31;5083413;28;20092;-73
2021/07/19 09:21:36;;;;;;;1.85;0.32;;;;;;;29.05;23.12;100767.44;5083539;28;20052;-71
2021/07/19 09:24:21;;;;;;;0.98;0.60;;;;;;;29.07;23.02;100768.19;5083515;28;20024;-70
2021/07/19 09:26:49;;;;;;;1.27;0.40;;;;;;;28.84;22.86;100770.84;5083557;28;20051;-74
2021/07/19 09:29:19;;;;;;;1.40;0.50;;;;;;;28.61;23.21;100770.88;5083218;28;20102;-73
2021/07/19 09:31:51;;;;;;;0.90;0.50;;;;;;;28.87;23.74;100765.25;5083493;28;20068;-73
2021/07/19 09:34:19;;;;;;;1.40;0.55;;;;;;;29.59;22.97;100770.19;5083221;28;20051;-74
2021/07/19 09:37:01;;;;;;;1.15;0.50;;;;;;;30.10;21.89;100772.22;5083449;28;20025;-73
2021/07/19 09:39:31;;;;;;;0.80;0.40;;;;;;;30.20;21.17;100761.56;5083427;28;20025;-73
2021/07/19 09:42:24;;;;;;;3.03;0.40;;;;;;;30.31;21.38;100766.84;5083143;28;20021;-73
2021/07/19 09:44:58;;;;;;;0.63;0.50;;;;;;;30.39;21.27;100758.13;5081460;28;20051;-73
2021/07/19 09:47:35;;;;;;;2.25;0.40;;;;;;;30.33;20.99;100767.56;5083419;28;20017;-73
2021/07/19 09:50:07;;;;;;;1.45;0.30;;;;;;;30.33;20.08;100764.88;5083181;28;20035;-72
2021/07/19 09:52:34;;;;;;;0.38;0.30;;;;;;;29.79;20.08;100767.66;5082889;28;20123;-71
2021/07/19 09:54:59;;;;;;;0.32;0.32;;;;;;;29.33;20.36;100762.47;5083116;28;20033;-72
2021/07/19 09:57:25;;;;;;;0.73;0.40;;;;;;;29.24;21.36;100769.47;5083341;28;20032;-76
2021/07/19 09:59:51;;;;;;;1.00;0.50;;;;;;;29.83;20.48;100761.06;5083532;28;20021;-76
2021/07/19 10:02:34;;;;;;;0.75;0.35;;;;;;;29.84;20.41;100751.22;5083702;28;20081;-77
2021/07/19 10:05:00;;;;;;;0.50;0.38;;;;;;;30.01;19.85;100760.47;5083501;28;20057;-80
2021/07/19 10:07:26;;;;;;;1.17;0.45;;;;;;;30.00;19.33;100766.81;5081981;28;20091;-78
2021/07/19 10:09:59;;;;;;;0.38;0.30;;;;;;;29.66;19.37;100760.69;5083250;28;20365;-78
2021/07/19 10:12:25;;;;;;;2.75;0.70;;;;;;;29.70;20.33;100755.91;5083167;28;20060;-77
2021/07/19 10:14:51;;;;;;;0.28;0.28;;;;;;;30.05;19.41;100759.22;5083491;28;20407;-77
2021/07/19 10:17:17;;;;;;;3.30;0.40;;;;;;;30.05;19.10;100759.22;5082001;28;20520;-78
2021/07/19 10:19:43;;;;;;;0.63;0.40;;;;;;;30.15;19.91;100757.44;5082962;28;20280;-78
2021/07/19 10:22:10;;;;;;;2.28;0.43;;;;;;;30.65;19.03;100758.53;5081940;28;20035;-78
2021/07/19 10:24:39;;;;;;;0.60;0.40;;;;;;;30.30;19.08;100765.16;5081646;28;20393;-75
2021/07/19 10:27:04;;;;;;;0.47;0.30;;;;;;;30.10;19.26;100756.97;5082897;28;20104;-79
2021/07/19 10:29:30;;;;;;;1.67;0.50;;;;;;;30.23;19.51;100750.59;5084812;28;20024;-76
2021/07/19 10:31:56;;;;;;;0.60;0.30;;;;;;;30.31;19.34;100750.78;5085981;28;20074;-77
2021/07/19 10:34:22;;;;;;;0.40;0.32;;;;;;;30.49;19.01;100752.81;5086348;28;20024;-77
2021/07/19 10:36:47;;;;;;;0.98;0.57;;;;;;;30.39;19.03;100753.63;5086869;28;20020;-77
2021/07/19 10:39:30;;;;;;;1.93;0.50;;;;;;;30.14;19.47;100750.41;5086750;28;20021;-78
2021/07/19 10:42:12;;;;;;;1.23;0.50;;;;;;;29.99;19.95;100743.69;5084750;28;20277;-77
2021/07/19 10:44:38;;;;;;;;;;;;;;;29.99;20.45;100749.03;5087222;28;20024;-76
2021/07/19 10:47:14;;;;;;;0.55;0.40;;;;;;;30.05;20.50;100752.03;5086471;28;19908;-77
2021/07/19 10:49:43;;;;;;;0.65;0.43;;;;;;;30.36;20.22;100753.03;5085079;28;20465;-78
2021/07/19 10:52:12;;;;;;;2.05;0.50;;;;;;;30.90;20.11;100748.31;5086276;28;20051;-77
2021/07/19 10:54:48;;;;;;;2.20;0.50;;;;;;;31.12;19.78;100751.69;5085926;28;20536;-78
2021/07/19 10:57:17;;;;;;;0.73;0.40;;;;;;;30.77;19.33;100747.66;5086378;28;20029;-79
2021/07/19 10:59:44;;;;;;;0.98;0.50;;;;;;;30.25;20.22;100745.97;5085226;28;20020;-78
2021/07/19 11:02:25;;;;;;;0.85;0.50;;;;;;;29.64;20.85;100746.59;5086107;28;20032;-77
2021/07/19 11:04:50;;;;;;;0.63;0.40;;;;;;;28.81;21.86;100744.38;5085619;28;20028;-78
2021/07/19 11:07:16;;;;;;;0.80;0.40;;;;;;;27.86;22.99;100741.09;5086093;28;20043;-79
2021/07/19 11:09:41;;;;;;;0.82;0.50;;;;;;;27.27;24.17;100739.16;5085940;28;20362;-78
2021/07/19 11:12:17;;;;;;;2.67;0.40;;;;;;;27.22;24.59;100747.50;5085757;28;20016;-81
2021/07/19 11:14:45;;;;;;;3.92;0.43;;;;;;;27.35;23.83;100747.44;5086011;28;20024;-79
2021/07/19 11:17:11;;;;;;;0.77;0.50;;;;;;;27.22;24.82;100738.69;5085740;28;20017;-80
2021/07/19 11:19:39;;;;;;;0.80;0.50;;;;;;;27.04;24.32;100738.22;5085828;28;20031;-79
2021/07/19 11:22:10;;;;;;;1.65;0.40;;;;;;;26.85;24.51;100743.03;5085522;28;20017;-79
2021/07/19 11:24:42;;;;;;;2.15;0.47;;;;;;;26.51;24.07;100748.13;5085592;28;20020;-78
2021/07/19 11:27:08;;;;;;;1.38;0.60;;;;;;;26.30;24.90;100745.13;5085434;28;20033;-78